x

Fripp Nearshore (frp 2) (41033) Weather Station

4:08am - Wed 20th Sep 2017 All times are EDT. -4 hours from GMT.

  • Wind
    9mph, 13mph gusts
  • Air Temp 79°f
  • Sea Pressure 1022.6mb
  • Fripp Nearshore (frp 2)
  • Fripp Nearshore (frp 2)

More Historic Weather Station data

Upgrade to MSW Pro to gain access to the past 30 days of data for over 8000 Wavebouys and Weather Stations around the globe.

Join

Comparision Forecast

View Surf forecast
   
Wed 09/20 4:08am 9 13 mph 1022.6mb 79f
2:08am 9 13 mph 1022.6mb 79f
1:08am 9 11 mph 1021.8mb 79f
12:08am 7 9 mph 1021.8mb 79f
Tue 09/19 11:08pm 7 9 mph 1021.6mb 79f
10:08pm 9 11 mph 1020.1mb 79f
9:08pm 9 11 mph 1020.2mb 79f
8:08pm 9 11 mph 1019.4mb 79f
7:08pm 9 9 mph 1018.1mb 80f
6:08pm 11 13 mph 1020.6mb 81f
5:08pm 11 13 mph 1021.1mb 81f
4:08pm 9 11 mph 1018.3mb 80f
3:08pm 7 9 mph 1020.4mb 80f
2:08pm 4 7 mph 1021mb 81f
1:08pm 7 9 mph 1021.6mb 80f
12:08pm 4 7 mph 1024.5mb 81f
11:08am 4 7 mph 1025mb 80f
10:08am 9 11 mph 1024.3mb 79f
9:08am 11 13 mph 1024.1mb 78f
8:08am 9 11 mph 1022.6mb 76f
7:08am 7 9 mph 1020.2mb 76f
6:08am 9 11 mph 1019.4mb 76f
5:08am 7 11 mph 1019.9mb 77f
4:08am 7 9 mph 1020.3mb 77f
3:08am 7 9 mph 1021.5mb 78f
2:08am 4 7 mph 1022.2mb 78f
1:08am 4 7 mph 1021.7mb 78f
12:08am 7 9 mph 1021.6mb 78f
Mon 09/18 11:08pm 4 7 mph 1021.3mb 78f
10:08pm 4 7 mph 1020.7mb 78f
9:08pm 7 9 mph 1020.9mb 78f
8:08pm 7 9 mph 1018.9mb 79f
7:08pm 11 13 mph 1018.3mb 80f
6:08pm 9 11 mph 1018.7mb 83f
5:08pm 9 13 mph 1020.2mb 85f
4:08pm 11 16 mph 1018.9mb 84f
3:08pm 2 4 mph 1021mb 82f
2:08pm 2 4 mph 1023.9mb 80f
1:08pm 7 9 mph 1024.2mb 79f
12:08pm 9 11 mph 1024.3mb 77f
11:08am 9 13 mph 1024.1mb 76f
10:08am 11 16 mph 1023.4mb 75f
9:08am 11 16 mph 1022.7mb 76f
8:08am 11 16 mph 1022mb 74f
7:08am 13 16 mph 1020.1mb 74f
6:08am 13 16 mph 1020.1mb 76f
5:08am 11 13 mph 1020mb 76f
4:08am 11 13 mph 1020.5mb 77f
3:08am 11 16 mph 1021.9mb 77f
2:08am 11 16 mph 1022.8mb 78f
1:08am 9 11 mph 1023mb 77f
12:08am 7 9 mph 1023.3mb 77f
Sun 09/17 11:08pm 7 9 mph 1023.1mb 77f
10:08pm 7 9 mph 1022.6mb 77f
9:08pm 4 7 mph 1021.8mb 77f
8:08pm 7 9 mph 1020.5mb 77f
7:08pm 9 13 mph 1018.6mb 78f
6:08pm 4 7 mph 1022.5mb 80f
5:08pm 7 9 mph 1021.5mb 79f
4:08pm 9 11 mph 1021.5mb 80f
3:08pm 7 9 mph 1023.4mb 81f
2:08pm 9 11 mph 1024.1mb 81f
1:08pm 11 13 mph 1024mb 80f
12:08pm 13 20 mph 1023.9mb 79f
11:08am 16 20 mph 1024.3mb 78f
10:08am 13 18 mph 1024.8mb 76f
9:08am 13 18 mph 1023.8mb 75f
8:08am 13 18 mph 1023.3mb 75f
7:08am 11 13 mph 1021.9mb 74f
6:08am 11 16 mph 1021.5mb 74f
5:08am 9 11 mph 1021.5mb 75f
4:08am 9 13 mph 1021.4mb 75f
3:08am 9 13 mph 1021.6mb 76f
2:08am 9 11 mph 1022.3mb 77f
1:08am 9 11 mph 1023.1mb 77f
12:08am 7 9 mph 1023.5mb 78f
Sat 09/16 11:08pm 4 9 mph 1023.2mb 77f
10:08pm 4 7 mph 1022.6mb 78f
9:08pm 4 7 mph 1022.2mb 78f
8:08pm 7 9 mph 1022.2mb 79f
7:08pm 9 11 mph 1021.2mb 79f
6:08pm 9 13 mph 1023mb 82f
5:08pm 9 11 mph 1024.8mb 82f
4:08pm 7 9 mph 1022.4mb 81f
3:08pm 4 7 mph 1026mb 81f
2:08pm 7 9 mph 1024.9mb 80f
1:08pm 4 4 mph 1027.4mb 78f
12:08pm 7 9 mph 1026.8mb 77f
11:08am 7 9 mph 1025.7mb 76f
10:08am 7 9 mph 1027.9mb 76f